Time;durP1;ratioP1;P1;durP2;ratioP2;P2;SDS_P1;SDS_P2;PMS_P1;PMS_P2;Temp;Humidity;BMP_temperature;BMP_pressure;BME280_temperature;BME280_humidity;BME280_pressure;Samples;Min_cycle;Max_cycle;Signal;HPM_P1;HPM_P2
2021/12/26 00:01:34;;;;;;;150.32;121.90;;;19.80;48.30;;;;;;4347565;60;21114;-35
2021/12/26 00:06:35;;;;;;;151.45;124.40;;;19.80;47.70;;;;;;4354244;60;21104;-28
2021/12/26 00:11:36;;;;;;;140.45;115.12;;;19.80;48.20;;;;;;4345846;60;21083;-34
2021/12/26 00:16:37;;;;;;;144.80;116.93;;;19.80;48.20;;;;;;4365212;60;21067;-35
2021/12/26 00:21:40;;;;;;;147.10;120.37;;;19.80;48.20;;;;;;4360484;60;21136;-33
2021/12/26 00:26:41;;;;;;;141.95;117.32;;;19.80;48.20;;;;;;4345284;60;21059;-36
2021/12/26 00:31:42;;;;;;;142.02;116.78;;;19.80;48.30;;;;;;4346078;60;21838;-33
2021/12/26 00:36:43;;;;;;;147.43;120.93;;;19.80;48.20;;;;;;4346627;60;21606;-37
2021/12/26 00:41:44;;;;;;;149.60;122.22;;;19.80;48.20;;;;;;4346242;60;21048;-36
2021/12/26 00:46:45;;;;;;;139.35;115.00;;;19.80;48.20;;;;;;4352564;60;21136;-37
2021/12/26 00:51:46;;;;;;;145.12;118.95;;;19.80;48.20;;;;;;4351954;60;21068;-36
2021/12/26 00:56:47;;;;;;;141.10;115.93;;;19.80;48.20;;;;;;4360837;60;21063;-34
2021/12/26 01:01:48;;;;;;;134.30;109.93;;;19.80;48.30;;;;;;4367566;60;21550;-33
2021/12/26 01:06:51;;;;;;;140.60;113.12;;;19.80;48.20;;;;;;4368735;60;21051;-33
2021/12/26 01:11:56;;;;;;;138.82;113.55;;;19.80;48.20;;;;;;4344541;60;21618;-35
2021/12/26 01:17:12;;;;;;;140.30;113.88;;;19.80;48.20;;;;;;4339161;60;21657;-34
2021/12/26 01:22:15;;;;;;;135.25;112.80;;;19.80;48.20;;;;;;4343289;60;21593;-37
2021/12/26 01:27:16;;;;;;;139.55;112.60;;;19.80;48.20;;;;;;4359259;60;21075;-35
2021/12/26 01:32:17;;;;;;;135.00;110.37;;;19.80;48.20;;;;;;4361100;60;21048;-34
2021/12/26 01:37:18;;;;;;;134.37;109.03;;;19.80;48.20;;;;;;4339299;64;21052;-34
2021/12/26 01:42:19;;;;;;;130.60;108.35;;;19.80;48.20;;;;;;4362140;60;21084;-35
2021/12/26 01:47:20;;;;;;;138.77;112.80;;;19.80;48.60;;;;;;4341477;60;21571;-32
2021/12/26 01:52:21;;;;;;;132.87;108.97;;;19.80;48.20;;;;;;4358989;60;21541;-35
2021/12/26 01:57:22;;;;;;;130.00;108.07;;;19.80;48.20;;;;;;4368041;60;21170;-34
2021/12/26 02:02:23;;;;;;;135.37;110.05;;;19.80;48.20;;;;;;4342483;60;21088;-34
2021/12/26 02:07:24;;;;;;;131.52;107.20;;;19.80;48.20;;;;;;4347068;60;21587;-36
2021/12/26 02:12:24;;;;;;;125.85;105.70;;;19.80;48.20;;;;;;4339854;60;21114;-38
2021/12/26 02:17:27;;;;;;;131.20;104.38;;;19.80;48.20;;;;;;4343638;60;21179;-35
2021/12/26 02:22:32;;;;;;;130.95;106.72;;;19.80;48.30;;;;;;4361971;60;21600;-34
2021/12/26 02:27:42;;;;;;;124.53;103.57;;;19.80;48.20;;;;;;4338913;64;21633;-34
2021/12/26 02:32:47;;;;;;;122.47;101.90;;;19.80;48.30;;;;;;4389367;60;21553;-35
2021/12/26 02:37:48;;;;;;;127.03;104.85;;;19.80;48.20;;;;;;4341871;60;21650;-34
2021/12/26 02:42:49;;;;;;;118.97;98.82;;;19.80;48.20;;;;;;4338902;64;21039;-36
2021/12/26 02:47:51;;;;;;;120.60;98.12;;;19.80;48.20;;;;;;4338792;61;21063;-37
2021/12/26 02:52:53;;;;;;;115.97;97.47;;;19.80;48.20;;;;;;4339897;64;21100;-33
2021/12/26 02:57:56;;;;;;;118.90;97.20;;;19.80;48.30;;;;;;4339673;60;21176;-33
2021/12/26 03:03:01;;;;;;;118.18;99.32;;;19.80;48.30;;;;;;4343649;60;21127;-33
2021/12/26 03:08:02;;;;;;;120.00;97.55;;;19.80;48.20;;;;;;4354361;60;21180;-29
2021/12/26 03:13:05;;;;;;;114.50;93.87;;;19.80;48.30;;;;;;4348267;60;21132;-36
2021/12/26 03:18:08;;;;;;;117.97;95.47;;;19.80;48.30;;;;;;4351569;60;21568;-35
2021/12/26 03:23:11;;;;;;;119.25;97.95;;;19.80;48.20;;;;;;4350906;60;21084;-37
2021/12/26 03:28:14;;;;;;;112.12;92.07;;;19.80;48.20;;;;;;4366960;60;21047;-34
2021/12/26 03:33:15;;;;;;;111.07;93.10;;;19.80;48.20;;;;;;4350727;60;21086;-36
2021/12/26 03:38:17;;;;;;;112.72;93.35;;;19.80;48.20;;;;;;4347423;60;21550;-34
2021/12/26 03:43:19;;;;;;;111.68;91.25;;;19.80;48.30;;;;;;4343782;60;21055;-33
2021/12/26 03:48:22;;;;;;;110.35;91.07;;;19.80;48.20;;;;;;4347165;60;21180;-34
2021/12/26 03:53:22;;;;;;;110.28;90.57;;;19.80;48.20;;;;;;4405611;60;21047;-36
2021/12/26 03:58:24;;;;;;;108.75;88.90;;;19.80;48.20;;;;;;4338635;64;21044;-33
2021/12/26 04:03:25;;;;;;;109.78;91.45;;;19.80;48.40;;;;;;4360173;60;21032;-36
2021/12/26 04:08:26;;;;;;;106.57;85.78;;;19.80;48.30;;;;;;4362332;60;21052;-35
2021/12/26 04:13:27;;;;;;;112.50;90.95;;;19.80;48.30;;;;;;4340846;60;21039;-34
2021/12/26 04:18:28;;;;;;;107.75;89.30;;;19.80;48.30;;;;;;4341372;60;21080;-37
2021/12/26 04:23:29;;;;;;;107.55;87.28;;;19.80;48.30;;;;;;4359523;60;21074;-28
2021/12/26 04:28:30;;;;;;;105.18;86.50;;;19.80;48.20;;;;;;4338980;64;21056;-35
2021/12/26 04:33:31;;;;;;;102.53;86.30;;;19.80;48.20;;;;;;4344225;60;21097;-35
2021/12/26 04:38:32;;;;;;;103.93;85.15;;;19.80;48.30;;;;;;4362661;60;21056;-34
2021/12/26 04:43:36;;;;;;;102.47;83.20;;;19.80;48.20;;;;;;4346583;60;21084;-34
2021/12/26 04:48:39;;;;;;;107.53;87.78;;;19.80;48.30;;;;;;4362245;60;21593;-34
2021/12/26 04:53:41;;;;;;;100.28;83.10;;;19.80;48.30;;;;;;4375544;60;21138;-34
2021/12/26 04:58:41;;;;;;;98.78;81.93;;;19.80;48.30;;;;;;4357464;60;21068;-34
2021/12/26 05:03:43;;;;;;;98.03;80.43;;;19.80;48.30;;;;;;4360029;60;21507;-34
2021/12/26 05:08:44;;;;;;;97.95;79.68;;;19.80;48.30;;;;;;4338833;64;21569;-35
2021/12/26 05:13:45;;;;;;;96.10;78.87;;;19.80;48.90;;;;;;4349422;60;21113;-34
2021/12/26 05:18:46;;;;;;;95.00;79.18;;;19.80;48.40;;;;;;4370824;60;21079;-35
2021/12/26 05:23:47;;;;;;;97.25;80.65;;;19.80;48.30;;;;;;4338954;64;21051;-35
2021/12/26 05:28:49;;;;;;;94.80;77.97;;;19.80;48.30;;;;;;4359397;60;21127;-37
2021/12/26 05:33:49;;;;;;;90.97;75.82;;;19.80;48.30;;;;;;4339013;64;21556;-35
2021/12/26 05:38:50;;;;;;;91.70;76.62;;;19.80;48.30;;;;;;4340580;60;21160;-33
2021/12/26 05:43:53;;;;;;;90.00;71.87;;;19.80;49.00;;;;;;4348650;60;21116;-36
2021/12/26 05:48:54;;;;;;;93.10;77.78;;;19.80;48.30;;;;;;4356045;60;21622;-34
2021/12/26 05:53:55;;;;;;;92.25;73.37;;;19.80;48.30;;;;;;4354932;60;21064;-37
2021/12/26 05:58:55;;;;;;;90.80;74.72;;;19.80;48.80;;;;;;4343708;60;21139;-32
2021/12/26 06:03:59;;;;;;;91.30;75.30;;;19.70;48.20;;;;;;4359790;60;21127;-33
2021/12/26 06:09:00;;;;;;;89.22;73.22;;;19.80;48.30;;;;;;4351758;60;21131;-29
2021/12/26 06:14:01;;;;;;;84.57;69.03;;;19.80;48.30;;;;;;4345805;60;21154;-32
2021/12/26 06:19:02;;;;;;;87.75;72.30;;;19.80;48.30;;;;;;4385968;60;21948;-34
2021/12/26 06:24:04;;;;;;;86.70;72.87;;;19.80;48.30;;;;;;4384794;60;21114;-33
2021/12/26 06:29:05;;;;;;;87.32;71.90;;;19.70;48.30;;;;;;4373268;60;21103;-32
2021/12/26 06:34:06;;;;;;;88.72;73.32;;;19.80;48.30;;;;;;4358177;60;21601;-30
2021/12/26 06:39:07;;;;;;;83.47;68.75;;;19.80;48.30;;;;;;4352190;60;21076;-34
2021/12/26 06:44:08;;;;;;;85.18;69.80;;;19.80;48.30;;;;;;4356029;60;21243;-34
2021/12/26 06:49:09;;;;;;;84.30;67.32;;;19.80;48.30;;;;;;4356964;60;21524;-30
2021/12/26 06:54:10;;;;;;;81.25;67.22;;;19.80;48.30;;;;;;4343237;60;21064;-33
2021/12/26 06:59:11;;;;;;;85.93;71.07;;;19.70;48.30;;;;;;4346366;60;21596;-35
2021/12/26 07:04:11;;;;;;;80.78;66.93;;;19.80;48.30;;;;;;4340473;60;21112;-34
2021/12/26 07:09:16;;;;;;;85.03;70.03;;;19.70;48.30;;;;;;4339266;61;21092;-35
2021/12/26 07:14:17;;;;;;;86.63;70.07;;;19.70;48.30;;;;;;4364681;60;21207;-37
2021/12/26 07:19:17;;;;;;;83.15;68.55;;;19.80;48.30;;;;;;4349028;60;21176;-36
2021/12/26 07:24:18;;;;;;;82.07;66.65;;;19.80;48.30;;;;;;4343056;60;22366;-33
2021/12/26 07:29:19;;;;;;;80.43;68.65;;;19.80;48.40;;;;;;4350708;60;21060;-37
2021/12/26 07:34:20;;;;;;;82.80;69.95;;;19.70;48.30;;;;;;4371278;60;21739;-34
2021/12/26 07:39:21;;;;;;;81.47;67.50;;;19.70;48.30;;;;;;4343424;60;21055;-32
2021/12/26 07:44:22;;;;;;;81.72;66.43;;;19.80;48.40;;;;;;4375971;60;21144;-35
2021/12/26 07:49:23;;;;;;;82.80;68.28;;;19.80;48.30;;;;;;4351605;60;21047;-33
2021/12/26 07:54:25;;;;;;;84.95;68.55;;;19.80;48.30;;;;;;4339442;64;21641;-35
2021/12/26 07:59:26;;;;;;;79.57;66.05;;;19.80;48.30;;;;;;4378757;60;21637;-31
2021/12/26 08:04:27;;;;;;;79.93;66.87;;;19.80;48.30;;;;;;4368769;60;21135;-32
2021/12/26 08:09:28;;;;;;;78.95;64.60;;;19.80;48.40;;;;;;4364612;60;21116;-35
2021/12/26 08:14:29;;;;;;;80.65;66.47;;;19.70;48.30;;;;;;4368812;60;21067;-34
2021/12/26 08:19:29;;;;;;;83.78;68.57;;;19.80;48.40;;;;;;4351425;60;21107;-33
2021/12/26 08:24:30;;;;;;;81.82;66.72;;;19.80;48.40;;;;;;4373747;60;21598;-31
2021/12/26 08:29:31;;;;;;;79.32;67.07;;;19.80;48.40;;;;;;4339314;62;21077;-33
2021/12/26 08:34:32;;;;;;;80.53;66.18;;;19.80;48.40;;;;;;4350129;60;21071;-34
2021/12/26 08:39:39;;;;;;;79.18;65.07;;;19.80;48.40;;;;;;4353264;60;21063;-34
2021/12/26 08:44:41;;;;;;;81.53;67.23;;;19.80;48.40;;;;;;4352524;60;21097;-35
2021/12/26 08:49:42;;;;;;;79.68;65.25;;;19.80;48.40;;;;;;4364541;60;21115;-33
2021/12/26 08:54:43;;;;;;;83.62;66.87;;;19.80;48.40;;;;;;4350413;60;21560;-36
2021/12/26 08:59:44;;;;;;;81.00;67.03;;;19.80;48.40;;;;;;4350060;60;21047;-34
2021/12/26 09:04:45;;;;;;;80.22;66.78;;;19.80;48.40;;;;;;4359439;60;21052;-37
2021/12/26 09:09:46;;;;;;;77.82;65.03;;;19.80;48.40;;;;;;4351339;60;21087;-34
2021/12/26 09:14:47;;;;;;;84.40;67.70;;;19.80;48.40;;;;;;4394147;60;21589;-34
2021/12/26 09:19:48;;;;;;;80.87;66.65;;;19.80;48.40;;;;;;4337989;64;21103;-35
2021/12/26 09:24:51;;;;;;;83.90;68.82;;;19.80;48.50;;;;;;4351579;60;21095;-35
2021/12/26 09:29:52;;;;;;;85.97;70.47;;;19.80;48.40;;;;;;4368239;60;21542;-35
2021/12/26 09:34:53;;;;;;;84.00;68.93;;;19.80;48.40;;;;;;4342203;60;21048;-34
2021/12/26 09:39:54;;;;;;;83.50;68.05;;;19.80;49.00;;;;;;4354165;60;21544;-36
2021/12/26 09:44:58;;;;;;;86.12;69.60;;;19.80;48.40;;;;;;4344070;60;21143;-36
2021/12/26 09:50:00;;;;;;;86.47;69.60;;;19.80;48.40;;;;;;4360206;60;21676;-37
2021/12/26 09:55:01;;;;;;;85.07;71.28;;;19.80;48.40;;;;;;4357803;60;21557;-34
2021/12/26 10:00:45;;;;;;;86.45;71.40;;;19.80;48.40;;;;;;4343950;60;21101;-37
2021/12/26 10:06:06;;;;;;;82.10;70.15;;;19.80;48.40;;;;;;4389182;60;21565;-32
2021/12/26 10:11:11;;;;;;;85.62;71.62;;;19.80;48.40;;;;;;4351487;60;21541;-37
2021/12/26 10:16:14;;;;;;;87.85;72.45;;;19.80;48.40;;;;;;4341594;60;21063;-35
2021/12/26 10:21:57;;;;;;;89.37;70.93;;;19.80;48.40;;;;;;4359929;60;21637;-37
2021/12/26 10:27:07;;;;;;;84.65;70.43;;;19.80;48.40;;;;;;4392234;60;21028;-36
2021/12/26 10:32:14;;;;;;;86.63;71.12;;;19.80;48.40;;;;;;4338685;64;21779;-34
2021/12/26 10:37:31;;;;;;;86.50;71.18;;;19.80;48.40;;;;;;4349623;60;21112;-36
2021/12/26 10:42:35;;;;;;;86.87;70.03;;;19.80;48.40;;;;;;4349233;60;21063;-37
2021/12/26 10:47:38;;;;;;;88.43;72.12;;;19.80;48.40;;;;;;4342525;60;21112;-34
2021/12/26 10:52:53;;;;;;;84.37;69.82;;;19.80;48.40;;;;;;4365082;60;21056;-36
2021/12/26 10:57:54;;;;;;;84.35;70.40;;;19.80;48.40;;;;;;4344678;60;21109;-35
2021/12/26 11:03:04;;;;;;;86.75;71.55;;;19.80;48.40;;;;;;4359510;60;21051;-34
2021/12/26 11:08:12;;;;;;;85.65;70.97;;;19.80;48.40;;;;;;4352572;60;21525;-35
2021/12/26 11:13:32;;;;;;;88.75;71.97;;;19.80;48.40;;;;;;4367665;60;21047;-37
2021/12/26 11:18:36;;;;;;;87.50;72.43;;;19.80;48.40;;;;;;4356264;60;21087;-36
2021/12/26 11:23:39;;;;;;;89.65;72.82;;;19.80;48.40;;;;;;4357055;60;21039;-38
2021/12/26 11:28:43;;;;;;;88.90;72.93;;;19.80;48.40;;;;;;4356563;60;21062;-34
2021/12/26 11:33:46;;;;;;;93.55;76.75;;;19.80;48.40;;;;;;4339348;60;21075;-36
2021/12/26 11:38:48;;;;;;;91.78;76.30;;;19.80;48.40;;;;;;4357899;60;21067;-36
2021/12/26 11:44:54;;;;;;;93.22;77.65;;;19.80;48.40;;;;;;4359381;60;21521;-34
2021/12/26 11:50:14;;;;;;;99.30;79.72;;;19.80;48.40;;;;;;4352093;60;21186;-30
2021/12/26 11:56:32;;;;;;;97.53;80.50;;;19.80;48.60;;;;;;4348344;60;21048;-35
2021/12/26 12:01:35;;;;;;;96.57;78.12;;;19.80;48.50;;;;;;4341676;60;21123;-33
2021/12/26 12:06:36;;;;;;;100.32;82.70;;;19.90;48.50;;;;;;4353950;60;21064;-35
2021/12/26 12:12:00;;;;;;;103.07;83.97;;;19.80;48.50;;;;;;4347879;60;21100;-37
2021/12/26 12:17:19;;;;;;;101.43;84.13;;;19.90;48.50;;;;;;4358341;60;21055;-35
2021/12/26 12:22:20;;;;;;;102.12;84.25;;;19.80;48.50;;;;;;4359052;60;21158;-36
2021/12/26 12:27:23;;;;;;;107.15;87.07;;;19.80;48.50;;;;;;4338912;64;21131;-34
2021/12/26 12:32:28;;;;;;;100.43;84.20;;;19.80;48.50;;;;;;4339024;64;22030;-37
2021/12/26 12:37:46;;;;;;;107.20;85.45;;;19.90;48.50;;;;;;4339059;61;21075;-34
2021/12/26 12:43:10;;;;;;;102.53;85.72;;;19.90;48.60;;;;;;4367449;60;21517;-37
2021/12/26 12:51:59;;;;;;;105.95;86.82;;;19.80;48.60;;;;;;4338816;64;21064;-36
2021/12/26 12:57:04;;;;;;;103.68;86.05;;;19.90;48.60;;;;;;4373669;60;21115;-36
2021/12/26 13:02:26;;;;;;;104.93;86.22;;;19.80;48.60;;;;;;4378682;60;21159;-36
2021/12/26 13:07:31;;;;;;;106.25;89.28;;;19.90;48.60;;;;;;4360459;60;21055;-36
2021/12/26 13:12:32;;;;;;;106.65;88.90;;;19.80;48.60;;;;;;4356435;60;21056;-31
2021/12/26 13:17:38;;;;;;;110.90;90.20;;;19.80;48.60;;;;;;4348319;60;21946;-32
2021/12/26 13:22:48;;;;;;;110.27;92.20;;;19.80;48.60;;;;;;4349256;60;21149;-34
2021/12/26 13:27:51;;;;;;;107.40;88.50;;;19.80;48.60;;;;;;4344457;60;21047;-34
2021/12/26 13:32:52;;;;;;;111.97;90.18;;;19.80;48.60;;;;;;4338732;64;21075;-30
2021/12/26 13:37:56;;;;;;;113.10;90.87;;;19.90;48.70;;;;;;4341178;60;21598;-31
2021/12/26 13:42:57;;;;;;;114.40;91.85;;;19.80;48.60;;;;;;4372818;60;22199;-31
2021/12/26 13:47:58;;;;;;;111.70;92.37;;;19.80;48.60;;;;;;4365092;60;21080;-35
2021/12/26 13:53:02;;;;;;;114.45;93.75;;;19.80;48.60;;;;;;4360902;60;22318;-34
2021/12/26 13:58:06;;;;;;;114.72;91.78;;;19.80;48.60;;;;;;4341309;60;21047;-36
2021/12/26 14:03:07;;;;;;;118.82;95.35;;;19.80;48.70;;;;;;4338844;64;21070;-37
2021/12/26 14:08:24;;;;;;;122.32;97.70;;;19.80;48.60;;;;;;4339184;64;21198;-35
2021/12/26 14:13:26;;;;;;;114.20;96.03;;;19.90;48.70;;;;;;4350711;60;21529;-33
2021/12/26 14:18:41;;;;;;;118.28;97.07;;;19.80;48.60;;;;;;4345330;60;21664;-34
2021/12/26 14:23:45;;;;;;;127.57;101.00;;;19.80;48.70;;;;;;4339933;64;21570;-36
2021/12/26 14:28:53;;;;;;;122.95;98.85;;;19.80;48.70;;;;;;4359588;60;21100;-35
2021/12/26 14:33:54;;;;;;;126.95;102.82;;;19.80;48.70;;;;;;4339349;64;21550;-31
2021/12/26 14:39:03;;;;;;;127.07;102.68;;;19.80;48.70;;;;;;4375755;60;21076;-34
2021/12/26 14:44:25;;;;;;;121.43;99.97;;;19.80;48.70;;;;;;4370229;60;21529;-34
2021/12/26 14:49:26;;;;;;;128.15;106.68;;;19.80;48.70;;;;;;4392880;60;21055;-35
2021/12/26 14:54:48;;;;;;;133.00;107.97;;;19.80;48.50;;;;;;4340204;60;21586;-36
2021/12/26 14:59:57;;;;;;;136.77;111.45;;;19.80;48.70;;;;;;4348453;60;21043;-35
2021/12/26 15:05:48;;;;;;;142.15;113.82;;;19.80;48.70;;;;;;4346227;60;21059;-36
2021/12/26 15:10:49;;;;;;;142.27;115.88;;;19.80;48.80;;;;;;4362950;60;21814;-36
2021/12/26 15:15:52;;;;;;;145.60;115.82;;;19.80;48.80;;;;;;4354602;60;21119;-35
2021/12/26 15:21:08;;;;;;;142.45;116.30;;;19.80;48.80;;;;;;4408351;60;21119;-36
2021/12/26 15:26:14;;;;;;;145.95;117.40;;;19.80;48.80;;;;;;4339745;60;21120;-35
2021/12/26 15:31:18;;;;;;;148.55;119.87;;;19.80;48.80;;;;;;4372929;60;21077;-35
2021/12/26 15:36:30;;;;;;;153.00;121.62;;;19.80;48.80;;;;;;4374390;60;21163;-35
2021/12/26 15:41:34;;;;;;;155.02;123.40;;;19.80;48.80;;;;;;4359864;60;21260;-32
2021/12/26 15:46:39;;;;;;;149.27;120.50;;;19.80;48.80;;;;;;4390961;60;21100;-37
2021/12/26 15:51:41;;;;;;;152.40;122.00;;;19.80;48.80;;;;;;4355439;60;21048;-37
2021/12/26 15:56:43;;;;;;;156.82;125.75;;;19.80;48.80;;;;;;4349746;60;21063;-31
2021/12/26 16:01:46;;;;;;;151.68;122.93;;;19.80;48.80;;;;;;4372217;60;21080;-34
2021/12/26 16:06:47;;;;;;;152.93;121.93;;;19.80;48.80;;;;;;4380291;60;21168;-36
2021/12/26 16:11:48;;;;;;;146.70;118.55;;;19.80;48.80;;;;;;4364221;60;21573;-33
2021/12/26 16:16:49;;;;;;;164.20;130.60;;;19.80;48.80;;;;;;4367271;60;21550;-34
2021/12/26 16:21:50;;;;;;;157.50;125.93;;;19.80;48.80;;;;;;4357214;60;21087;-37
2021/12/26 16:26:50;;;;;;;153.12;122.62;;;19.80;48.80;;;;;;4344035;60;21234;-33
2021/12/26 16:31:51;;;;;;;154.35;124.40;;;19.80;48.80;;;;;;4369750;60;21138;-36
2021/12/26 16:36:52;;;;;;;156.18;125.97;;;19.80;48.80;;;;;;4340063;61;21108;-35
2021/12/26 16:41:53;;;;;;;155.45;127.00;;;19.80;48.80;;;;;;4342332;60;21044;-34
2021/12/26 16:46:54;;;;;;;154.23;125.35;;;19.80;48.70;;;;;;4339109;61;21140;-35
2021/12/26 16:51:55;;;;;;;155.87;124.53;;;19.80;48.80;;;;;;4345185;60;21513;-36
2021/12/26 16:56:57;;;;;;;156.02;123.62;;;19.80;49.40;;;;;;4363512;60;21047;-38
2021/12/26 17:01:58;;;;;;;156.25;126.18;;;19.80;48.70;;;;;;4404791;60;21088;-35
2021/12/26 17:06:59;;;;;;;161.80;128.57;;;19.80;48.80;;;;;;4339577;62;21533;-35
2021/12/26 17:12:00;;;;;;;156.37;127.00;;;19.80;49.10;;;;;;4344637;60;21048;-37
2021/12/26 17:17:02;;;;;;;161.75;130.12;;;19.80;48.70;;;;;;4339390;64;21075;-36
2021/12/26 17:22:04;;;;;;;153.80;122.87;;;19.80;48.70;;;;;;4369282;60;21665;-35
2021/12/26 17:27:20;;;;;;;155.35;127.20;;;19.80;48.70;;;;;;4360300;60;21068;-31
2021/12/26 17:32:22;;;;;;;152.23;124.95;;;19.80;48.70;;;;;;4370896;60;21601;-35
2021/12/26 17:37:23;;;;;;;156.80;125.87;;;19.80;48.70;;;;;;4338909;64;21122;-35
2021/12/26 17:42:24;;;;;;;159.85;127.57;;;19.80;48.60;;;;;;4347342;60;21614;-35
2021/12/26 17:47:25;;;;;;;158.48;127.20;;;19.80;48.60;;;;;;4405173;60;21545;-36
2021/12/26 17:52:26;;;;;;;157.35;127.87;;;19.80;48.60;;;;;;4338995;64;21144;-36
2021/12/26 17:57:27;;;;;;;154.25;126.32;;;19.80;48.60;;;;;;4342664;60;21055;-32
2021/12/26 18:02:28;;;;;;;152.18;122.37;;;19.80;48.60;;;;;;4361351;60;21044;-38
2021/12/26 18:07:29;;;;;;;154.55;125.93;;;19.80;48.60;;;;;;4366259;60;21031;-35
2021/12/26 18:12:29;;;;;;;150.82;122.75;;;19.80;48.50;;;;;;4344211;60;21595;-35
2021/12/26 18:17:30;;;;;;;157.12;124.18;;;19.80;48.50;;;;;;4351646;60;21132;-34
2021/12/26 18:22:31;;;;;;;153.48;124.97;;;19.80;48.50;;;;;;4359104;60;21168;-35
2021/12/26 18:27:33;;;;;;;147.07;120.85;;;19.80;48.50;;;;;;4345074;60;21099;-35
2021/12/26 18:32:35;;;;;;;150.27;121.65;;;19.80;48.50;;;;;;4344829;60;21678;-34
2021/12/26 18:37:37;;;;;;;159.23;126.78;;;19.80;48.50;;;;;;4339309;64;21112;-36
2021/12/26 18:42:39;;;;;;;153.35;124.22;;;19.80;48.40;;;;;;4361216;60;21071;-38
2021/12/26 18:47:40;;;;;;;148.25;121.90;;;19.80;48.40;;;;;;4367475;60;21115;-35
2021/12/26 18:52:42;;;;;;;148.30;122.13;;;19.80;48.40;;;;;;4340499;60;21585;-36
2021/12/26 18:57:42;;;;;;;151.27;121.25;;;19.80;48.40;;;;;;4358678;60;21028;-38
2021/12/26 19:02:47;;;;;;;154.68;123.82;;;19.70;48.30;;;;;;4360563;60;21629;-36
2021/12/26 19:07:48;;;;;;;150.45;121.13;;;19.70;48.30;;;;;;4342953;60;21582;-34
2021/12/26 19:12:49;;;;;;;149.40;121.93;;;19.80;48.40;;;;;;4347336;60;21059;-37
2021/12/26 19:17:50;;;;;;;143.27;118.15;;;19.80;48.40;;;;;;4339640;64;21056;-34
2021/12/26 19:22:50;;;;;;;148.77;121.25;;;19.70;48.30;;;;;;4338661;60;21589;-36
2021/12/26 19:27:55;;;;;;;145.50;119.32;;;19.70;47.80;;;;;;4346468;60;22203;-34
2021/12/26 19:32:56;;;;;;;150.70;122.35;;;19.80;48.30;;;;;;4360222;60;21108;-36
2021/12/26 19:37:59;;;;;;;151.55;123.13;;;19.70;48.20;;;;;;4339039;61;21534;-37
2021/12/26 19:43:03;;;;;;;148.23;121.28;;;19.80;48.20;;;;;;4360381;60;21052;-37
2021/12/26 19:48:04;;;;;;;145.52;118.65;;;19.70;48.10;;;;;;4338921;64;21474;-34
2021/12/26 19:53:05;;;;;;;142.20;117.45;;;19.70;48.10;;;;;;4338918;64;21097;-36
2021/12/26 19:58:06;;;;;;;146.18;119.55;;;19.70;48.20;;;;;;4344542;60;21534;-35
2021/12/26 20:03:08;;;;;;;145.27;119.07;;;19.70;48.20;;;;;;4339242;64;21055;-35
2021/12/26 20:08:09;;;;;;;144.05;120.57;;;19.70;48.10;;;;;;4355402;60;21055;-36
2021/12/26 20:13:09;;;;;;;141.82;117.03;;;19.80;48.20;;;;;;4341856;60;21577;-34
2021/12/26 20:18:10;;;;;;;142.30;117.72;;;19.80;48.10;;;;;;4354336;60;21135;-32
2021/12/26 20:23:11;;;;;;;142.27;115.78;;;19.70;48.00;;;;;;4343594;60;21108;-37
2021/12/26 20:28:14;;;;;;;137.88;115.85;;;19.70;48.00;;;;;;4343311;60;21525;-34
2021/12/26 20:33:18;;;;;;;139.02;114.78;;;19.70;48.00;;;;;;4344052;60;21565;-36
2021/12/26 20:38:20;;;;;;;139.55;115.12;;;19.70;48.00;;;;;;4338921;64;21645;-32
2021/12/26 20:43:21;;;;;;;149.65;120.22;;;19.70;47.90;;;;;;4356066;60;21178;-31
2021/12/26 20:48:22;;;;;;;150.93;122.13;;;19.70;47.90;;;;;;4349192;60;21147;-34
2021/12/26 20:53:23;;;;;;;145.65;118.93;;;19.70;48.00;;;;;;4339208;64;21626;-35
2021/12/26 20:58:24;;;;;;;145.75;118.43;;;19.70;47.90;;;;;;4351975;60;21040;-35
2021/12/26 21:03:25;;;;;;;140.00;113.50;;;19.70;48.50;;;;;;4338975;61;21614;-33
2021/12/26 21:08:29;;;;;;;146.95;121.18;;;19.70;47.90;;;;;;4338799;64;21132;-35
2021/12/26 21:13:30;;;;;;;145.70;120.70;;;19.70;47.90;;;;;;4339292;64;21602;-33
2021/12/26 21:18:32;;;;;;;150.40;127.05;;;19.70;47.90;;;;;;4375685;60;21103;-36
2021/12/26 21:23:33;;;;;;;148.18;121.18;;;19.70;47.80;;;;;;4345129;60;21543;-34
2021/12/26 21:28:34;;;;;;;145.95;119.30;;;19.70;47.80;;;;;;4339493;64;21100;-37
2021/12/26 21:33:35;;;;;;;146.40;121.95;;;19.70;47.80;;;;;;4344753;60;21553;-34
2021/12/26 21:38:36;;;;;;;150.07;122.75;;;19.70;47.70;;;;;;4418911;60;21104;-36
2021/12/26 21:43:37;;;;;;;144.65;117.93;;;19.70;47.70;;;;;;4348967;60;21076;-34
2021/12/26 21:48:39;;;;;;;143.55;118.13;;;19.70;47.70;;;;;;4348163;60;21110;-37
2021/12/26 21:53:41;;;;;;;145.27;119.03;;;19.70;47.60;;;;;;4348556;60;21541;-35
2021/12/26 21:58:41;;;;;;;143.90;116.85;;;19.70;47.60;;;;;;4367605;60;22110;-36
2021/12/26 22:03:42;;;;;;;142.23;116.97;;;19.70;47.60;;;;;;4347760;60;21089;-34
2021/12/26 22:08:43;;;;;;;142.52;118.10;;;19.70;47.60;;;;;;4385359;60;21105;-35
2021/12/26 22:13:44;;;;;;;142.30;116.88;;;19.70;47.60;;;;;;4381309;60;21032;-35
2021/12/26 22:18:45;;;;;;;142.02;118.05;;;19.70;47.60;;;;;;4344959;60;21183;-34
2021/12/26 22:23:49;;;;;;;141.37;117.07;;;19.70;47.50;;;;;;4362735;60;21060;-35
2021/12/26 22:28:50;;;;;;;141.65;115.30;;;19.70;47.60;;;;;;4346360;60;21521;-34
2021/12/26 22:33:51;;;;;;;134.48;110.72;;;19.70;47.60;;;;;;4346921;60;21073;-34
2021/12/26 22:38:51;;;;;;;139.50;116.20;;;19.70;47.50;;;;;;4362782;60;21056;-37
2021/12/26 22:43:54;;;;;;;134.55;112.00;;;19.70;47.50;;;;;;4348738;60;21517;-34
2021/12/26 22:48:55;;;;;;;132.63;111.12;;;19.70;47.50;;;;;;4394987;60;21091;-35
2021/12/26 22:53:56;;;;;;;136.85;111.65;;;19.70;47.60;;;;;;4388266;60;21132;-35
2021/12/26 22:58:57;;;;;;;134.85;112.60;;;19.70;47.50;;;;;;4352178;60;21526;-34
2021/12/26 23:03:57;;;;;;;130.73;108.78;;;19.70;47.50;;;;;;4339117;64;21048;-34
2021/12/26 23:08:58;;;;;;;131.70;110.12;;;19.70;47.50;;;;;;4356024;60;21522;-36
2021/12/26 23:13:59;;;;;;;131.57;110.88;;;19.70;47.50;;;;;;4397055;60;21084;-34
2021/12/26 23:19:00;;;;;;;125.20;103.50;;;19.70;47.40;;;;;;4338688;64;21136;-31
2021/12/26 23:24:01;;;;;;;129.20;109.00;;;19.70;47.50;;;;;;4349458;60;21048;-34
2021/12/26 23:29:03;;;;;;;123.53;104.00;;;19.70;47.40;;;;;;4360315;60;21112;-33
2021/12/26 23:34:04;;;;;;;121.50;102.00;;;19.70;47.40;;;;;;4338970;64;21060;-35
2021/12/26 23:39:06;;;;;;;128.52;105.80;;;19.70;47.40;;;;;;4355880;60;21154;-35
2021/12/26 23:44:08;;;;;;;123.30;103.00;;;19.60;47.30;;;;;;4372352;60;21598;-36
2021/12/26 23:49:08;;;;;;;125.28;103.68;;;19.70;47.40;;;;;;4362194;60;21564;-36
2021/12/26 23:54:09;;;;;;;126.00;103.93;;;19.70;47.30;;;;;;4339618;64;21097;-35
2021/12/26 23:59:10;;;;;;;127.50;106.85;;;19.70;47.30;;;;;;4369610;60;21063;-34
